Terminal Aerodrome Forecast
Issued by NWS

Home | Current Version | Previous Version | Text Only | Print | Product List | Glossary On
Versions: 1 2 3 4 5 6 7 8 9 10 11 12 13 14 15 16
000
FTUS46 KSEW 231200 AAA
TAFBFI
TAF AMD
KBFI 231218Z 2312/2412 VRB03KT P6SM -SHRA VCTS BKN060CB BKN200
     FM231500 VRB03KT P6SM -SHRA SCT040 BKN070 OVC120
     FM231900 19008KT P6SM -SHRA BKN025 OVC040
     FM240300 19012KT P6SM -SHRA SCT020 BKN030 OVC045=

USA.gov is the U.S. government's official web portal to all federal, state and local government web resources and services.